Time;durP1;ratioP1;P1;durP2;ratioP2;P2;SDS_P1;SDS_P2;PMS_P1;PMS_P2;Temp;Humidity;BMP_temperature;BMP_pressure;BME280_temperature;BME280_humidity;BME280_pressure;Samples;Min_cycle;Max_cycle;Signal;HPM_P1;HPM_P2
2023/12/25 00:01:41;;;;;;;3.80;1.20;;;10.00;99.90;;;;;;4995670;28;20293;-75
2023/12/25 00:04:07;;;;;;;3.57;1.50;;;10.00;99.90;;;;;;4992671;28;20267;-75
2023/12/25 00:06:32;;;;;;;4.03;1.20;;;10.00;99.90;;;;;;4997527;28;20225;-75
2023/12/25 00:08:58;;;;;;;3.83;1.50;;;10.00;99.90;;;;;;4989886;28;20276;-75
2023/12/25 00:11:24;;;;;;;5.00;1.77;;;10.00;99.90;;;;;;4984224;28;20689;-75
2023/12/25 00:13:52;;;;;;;2.83;1.00;;;9.90;99.90;;;;;;4984364;28;20727;-75
2023/12/25 00:16:18;;;;;;;6.43;1.73;;;9.90;99.90;;;;;;4991250;28;20238;-75
2023/12/25 00:18:44;;;;;;;5.47;1.30;;;9.90;99.90;;;;;;4995069;28;20531;-75
2023/12/25 00:21:09;;;;;;;1.10;1.10;;;9.90;99.90;;;;;;4992765;28;20667;-75
2023/12/25 00:23:35;;;;;;;1.30;1.20;;;9.90;99.90;;;;;;4996396;28;20489;-74
2023/12/25 00:26:01;;;;;;;1.77;1.23;;;9.90;99.90;;;;;;4991957;28;20763;-75
2023/12/25 00:28:26;;;;;;;2.20;1.77;;;9.90;99.90;;;;;;4999569;28;20222;-75
2023/12/25 00:30:52;;;;;;;2.53;1.63;;;9.90;99.90;;;;;;4974250;28;20268;-75
2023/12/25 00:33:18;;;;;;;5.47;1.27;;;9.90;99.90;;;;;;4995196;28;20219;-74
2023/12/25 00:35:43;;;;;;;2.83;1.43;;;9.90;99.90;;;;;;4995835;28;20222;-75
2023/12/25 00:38:09;;;;;;;2.00;1.40;;;9.90;99.90;;;;;;4989975;28;20221;-75
2023/12/25 00:40:35;;;;;;;6.57;1.97;;;9.90;99.90;;;;;;4984008;28;20222;-75
2023/12/25 00:43:00;;;;;;;2.67;1.20;;;9.90;99.90;;;;;;4981653;28;20214;-75
2023/12/25 00:45:26;;;;;;;3.47;1.53;;;9.90;99.90;;;;;;4998553;28;20226;-75
2023/12/25 00:47:52;;;;;;;2.83;1.40;;;9.90;99.90;;;;;;4992904;28;20245;-76
2023/12/25 00:50:17;;;;;;;4.50;1.70;;;9.90;99.90;;;;;;4978445;28;20219;-75
2023/12/25 00:52:43;;;;;;;2.57;1.40;;;10.00;99.90;;;;;;4982638;28;20219;-76
2023/12/25 00:55:09;;;;;;;5.00;2.00;;;10.00;99.90;;;;;;4990587;28;20226;-75
2023/12/25 00:57:34;;;;;;;1.53;1.20;;;10.00;99.90;;;;;;4994992;28;20222;-76
2023/12/25 01:00:00;;;;;;;2.70;1.50;;;10.00;99.90;;;;;;4989538;28;20246;-74
2023/12/25 01:02:26;;;;;;;1.30;1.20;;;10.00;99.90;;;;;;4981185;28;20221;-75
2023/12/25 01:04:51;;;;;;;2.40;1.30;;;10.00;99.90;;;;;;4993177;28;20226;-75
2023/12/25 01:07:17;;;;;;;1.83;1.50;;;10.00;99.90;;;;;;4991252;28;20217;-75
2023/12/25 01:09:43;;;;;;;7.20;1.40;;;10.00;99.90;;;;;;4997970;28;20699;-75
2023/12/25 01:12:09;;;;;;;1.77;1.67;;;10.00;99.90;;;;;;4990565;28;20223;-75
2023/12/25 01:14:35;;;;;;;4.20;1.60;;;10.00;99.90;;;;;;4993364;28;20210;-75
2023/12/25 01:17:01;;;;;;;3.20;1.70;;;10.00;99.90;;;;;;4991080;28;21095;-75
2023/12/25 01:19:27;;;;;;;1.20;1.20;;;10.00;99.90;;;;;;4996215;28;20827;-75
2023/12/25 01:21:52;;;;;;;1.70;1.60;;;10.10;99.90;;;;;;4991722;28;20276;-74
2023/12/25 01:24:18;;;;;;;1.63;1.50;;;10.10;99.90;;;;;;4993464;28;20305;-75
2023/12/25 01:26:44;;;;;;;2.23;1.40;;;10.10;99.90;;;;;;4979697;28;20214;-75
2023/12/25 01:29:09;;;;;;;5.13;2.00;;;10.10;99.90;;;;;;4977702;28;20372;-75
2023/12/25 01:31:36;;;;;;;3.30;1.43;;;10.10;99.90;;;;;;4977742;28;20218;-75
2023/12/25 01:34:02;;;;;;;1.13;1.13;;;10.10;99.90;;;;;;4989710;28;20469;-75
2023/12/25 01:36:27;;;;;;;2.40;1.23;;;10.10;99.90;;;;;;4992802;28;20234;-75
2023/12/25 01:38:53;;;;;;;2.40;1.70;;;10.10;99.90;;;;;;4985832;28;20481;-74
2023/12/25 01:41:20;;;;;;;1.07;0.97;;;10.10;99.90;;;;;;4976310;28;20304;-76
2023/12/25 01:43:45;;;;;;;3.70;1.70;;;10.10;99.90;;;;;;4978098;28;20220;-75
2023/12/25 01:46:14;;;;;;;1.10;1.00;;;10.10;99.90;;;;;;4976043;28;20469;-75
2023/12/25 01:48:41;;;;;;;2.20;1.30;;;10.10;99.90;;;;;;4994495;28;20222;-75
2023/12/25 01:51:07;;;;;;;2.60;1.57;;;10.20;99.90;;;;;;4977568;28;20469;-75
2023/12/25 01:53:34;;;;;;;1.77;1.03;;;10.20;99.90;;;;;;4982958;28;21012;-74
2023/12/25 01:56:00;;;;;;;2.23;1.60;;;10.20;99.90;;;;;;4984678;28;20502;-75
2023/12/25 01:58:25;;;;;;;2.60;1.40;;;10.20;99.90;;;;;;4991031;28;20461;-75
2023/12/25 02:00:51;;;;;;;1.77;1.30;;;10.20;99.90;;;;;;4990141;28;20242;-75
2023/12/25 02:03:17;;;;;;;1.57;1.10;;;10.20;99.90;;;;;;4990798;28;20224;-74
2023/12/25 02:05:43;;;;;;;3.20;1.37;;;10.20;99.90;;;;;;5010513;28;20226;-75
2023/12/25 02:08:13;;;;;;;1.87;1.47;;;10.20;99.90;;;;;;4973076;28;20229;-75
2023/12/25 02:10:39;;;;;;;2.27;1.70;;;10.20;99.90;;;;;;4987776;28;20509;-75
2023/12/25 02:13:05;;;;;;;1.40;1.00;;;10.20;99.90;;;;;;4986828;28;20450;-75
2023/12/25 02:15:31;;;;;;;3.50;1.50;;;10.20;99.90;;;;;;4992994;28;21006;-75
2023/12/25 02:17:57;;;;;;;1.57;1.10;;;10.20;99.90;;;;;;5002594;28;20301;-75
2023/12/25 02:20:23;;;;;;;1.23;1.13;;;10.20;99.90;;;;;;5000295;28;20220;-75
2023/12/25 02:22:50;;;;;;;1.30;1.20;;;10.20;99.90;;;;;;4995029;28;20497;-75
2023/12/25 02:25:45;;;;;;;1.60;1.50;;;10.20;99.90;;;;;;4992429;28;20449;-75
2023/12/25 02:28:11;;;;;;;1.20;1.10;;;10.30;99.90;;;;;;4984805;28;20598;-74
2023/12/25 02:30:37;;;;;;;5.70;1.20;;;10.30;99.90;;;;;;4982631;28;20460;-76
2023/12/25 02:33:04;;;;;;;1.30;1.20;;;10.30;99.90;;;;;;4994194;28;20301;-75
2023/12/25 02:35:31;;;;;;;1.63;0.93;;;10.30;99.90;;;;;;5004261;28;20226;-75
2023/12/25 02:37:56;;;;;;;4.93;1.63;;;10.30;99.90;;;;;;4973537;28;20476;-75
2023/12/25 02:40:22;;;;;;;5.70;1.70;;;10.30;99.90;;;;;;5000063;28;20680;-75
2023/12/25 02:42:48;;;;;;;2.50;1.90;;;10.30;99.90;;;;;;4998476;28;20218;-75
2023/12/25 02:45:14;;;;;;;4.07;2.23;;;10.30;99.90;;;;;;4998776;28;20452;-75
2023/12/25 02:47:39;;;;;;;3.60;1.93;;;10.30;99.90;;;;;;4997080;28;20222;-75
2023/12/25 02:50:05;;;;;;;5.10;2.03;;;10.30;99.90;;;;;;4982148;28;20225;-75
2023/12/25 02:52:31;;;;;;;6.43;2.23;;;10.30;99.90;;;;;;5001622;28;20206;-75
2023/12/25 02:54:57;;;;;;;3.37;1.70;;;10.30;99.90;;;;;;4996850;28;20474;-75
2023/12/25 02:57:22;;;;;;;5.60;2.40;;;10.20;99.90;;;;;;4988061;28;20724;-75
2023/12/25 02:59:48;;;;;;;2.33;2.20;;;10.30;99.90;;;;;;4995289;28;20763;-75
2023/12/25 03:02:14;;;;;;;7.80;2.57;;;10.20;99.90;;;;;;4981080;28;20226;-75
2023/12/25 03:04:40;;;;;;;1.40;1.30;;;10.30;99.90;;;;;;4998910;28;20225;-76
2023/12/25 03:07:06;;;;;;;1.43;1.33;;;10.30;99.90;;;;;;4997239;28;20214;-75
2023/12/25 03:09:32;;;;;;;4.70;1.90;;;10.30;99.90;;;;;;4998990;28;20593;-75
2023/12/25 03:11:57;;;;;;;3.17;1.60;;;10.30;99.90;;;;;;4988391;28;20215;-75
2023/12/25 03:14:23;;;;;;;1.90;1.80;;;10.30;99.90;;;;;;4995760;28;20680;-74
2023/12/25 03:16:48;;;;;;;2.60;1.90;;;10.30;99.90;;;;;;4987295;28;20838;-75
2023/12/25 03:19:14;;;;;;;1.73;1.57;;;10.30;99.90;;;;;;4978420;28;20641;-74
2023/12/25 03:21:40;;;;;;;2.13;2.00;;;10.30;99.90;;;;;;5002211;28;20221;-75
2023/12/25 03:24:06;;;;;;;4.17;3.00;;;10.30;99.90;;;;;;4991320;28;20225;-76
2023/12/25 03:26:33;;;;;;;5.60;1.87;;;10.30;99.90;;;;;;4993385;28;20233;-75
2023/12/25 03:28:59;;;;;;;3.40;1.53;;;10.30;99.90;;;;;;4982452;28;20218;-75
2023/12/25 03:31:25;;;;;;;1.43;1.30;;;10.20;99.90;;;;;;4997147;28;21063;-75
2023/12/25 03:33:50;;;;;;;1.27;1.17;;;10.30;99.90;;;;;;4997885;28;20210;-76
2023/12/25 03:36:17;;;;;;;2.57;1.80;;;10.30;99.90;;;;;;4985446;28;20388;-75
2023/12/25 03:38:43;;;;;;;1.67;1.30;;;10.30;99.90;;;;;;4979863;28;21035;-76
2023/12/25 03:41:09;;;;;;;1.40;1.17;;;10.20;99.90;;;;;;4998773;28;20227;-76
2023/12/25 03:43:36;;;;;;;3.60;1.10;;;10.20;99.90;;;;;;5005593;28;21021;-75
2023/12/25 03:46:02;;;;;;;1.70;1.60;;;10.20;99.90;;;;;;4999894;28;20225;-75
2023/12/25 03:48:27;;;;;;;1.00;1.00;;;10.20;99.90;;;;;;4996659;28;20469;-75
2023/12/25 03:50:54;;;;;;;1.50;1.40;;;10.30;99.90;;;;;;4995997;28;20214;-75
2023/12/25 03:53:20;;;;;;;3.03;1.20;;;10.20;99.90;;;;;;5006204;28;20535;-74
2023/12/25 03:55:45;;;;;;;1.47;1.27;;;10.30;99.90;;;;;;5000763;28;20225;-75
2023/12/25 03:58:11;;;;;;;1.83;1.23;;;10.30;99.90;;;;;;5002162;28;20228;-75
2023/12/25 04:00:37;;;;;;;1.17;0.93;;;10.30;99.90;;;;;;4987651;28;20685;-75
2023/12/25 04:03:03;;;;;;;1.93;1.50;;;10.20;99.90;;;;;;4977100;28;20202;-75
2023/12/25 04:05:31;;;;;;;3.43;1.43;;;10.30;99.90;;;;;;4999767;28;20533;-75
2023/12/25 04:07:56;;;;;;;1.63;1.10;;;10.20;99.90;;;;;;5002088;28;20491;-75
2023/12/25 04:10:22;;;;;;;1.20;1.10;;;10.20;99.90;;;;;;4999136;28;20476;-75
2023/12/25 04:12:47;;;;;;;3.30;1.50;;;10.20;99.90;;;;;;5001665;28;20254;-74
2023/12/25 04:15:13;;;;;;;1.80;1.37;;;10.20;99.90;;;;;;5001665;28;20213;-75
2023/12/25 04:17:39;;;;;;;2.10;1.37;;;10.20;99.90;;;;;;4986416;28;20272;-75
2023/12/25 04:20:05;;;;;;;3.50;1.57;;;10.20;99.90;;;;;;4998317;28;20222;-75
2023/12/25 04:22:31;;;;;;;5.27;1.70;;;10.20;99.90;;;;;;4991783;28;20216;-75
2023/12/25 04:24:56;;;;;;;1.43;1.33;;;10.20;99.90;;;;;;4998265;28;20537;-75
2023/12/25 04:27:22;;;;;;;1.47;1.00;;;10.20;99.90;;;;;;5002906;28;20449;-75
2023/12/25 04:29:48;;;;;;;1.40;1.30;;;10.20;99.90;;;;;;5003247;28;20255;-75
2023/12/25 04:32:14;;;;;;;1.10;1.10;;;10.20;99.90;;;;;;4990712;28;20222;-75
2023/12/25 04:34:40;;;;;;;1.60;1.47;;;10.20;99.90;;;;;;5000726;28;20357;-75
2023/12/25 04:37:05;;;;;;;1.10;1.10;;;10.20;99.90;;;;;;4984059;28;20253;-74
2023/12/25 04:39:33;;;;;;;1.30;1.20;;;10.10;99.90;;;;;;4990072;28;20218;-75
2023/12/25 04:41:59;;;;;;;3.30;1.00;;;10.20;99.90;;;;;;4999425;28;20210;-75
2023/12/25 04:44:24;;;;;;;2.47;1.13;;;10.20;99.90;;;;;;5001883;28;20460;-74
2023/12/25 04:46:50;;;;;;;1.20;1.10;;;10.20;99.90;;;;;;5002698;28;20210;-75
2023/12/25 04:49:16;;;;;;;0.90;0.90;;;10.10;99.90;;;;;;4996894;28;20758;-74
2023/12/25 04:51:43;;;;;;;1.03;0.73;;;10.10;99.90;;;;;;4983089;28;20512;-75
2023/12/25 04:54:08;;;;;;;1.27;1.03;;;10.10;99.90;;;;;;4983376;28;20500;-75
2023/12/25 04:56:34;;;;;;;1.37;1.27;;;10.10;99.90;;;;;;4984967;28;20222;-75
2023/12/25 04:59:00;;;;;;;0.93;0.80;;;10.10;99.90;;;;;;5000556;28;20217;-75
2023/12/25 05:01:26;;;;;;;1.37;1.10;;;10.10;99.90;;;;;;4998927;28;20327;-75
2023/12/25 05:03:52;;;;;;;1.53;0.90;;;10.10;99.90;;;;;;4990058;28;20472;-75
2023/12/25 05:06:18;;;;;;;0.87;0.70;;;10.10;99.90;;;;;;4999819;28;20224;-75
2023/12/25 05:08:43;;;;;;;1.07;0.97;;;10.00;99.90;;;;;;4998359;28;20847;-75
2023/12/25 05:11:09;;;;;;;1.13;1.03;;;10.10;99.90;;;;;;4999488;28;20214;-75
2023/12/25 05:13:35;;;;;;;2.93;0.90;;;10.10;99.90;;;;;;4989386;28;20229;-75
2023/12/25 05:16:02;;;;;;;1.77;0.90;;;10.00;99.90;;;;;;4998485;28;20226;-75
2023/12/25 05:18:27;;;;;;;0.77;0.77;;;10.10;99.90;;;;;;4989631;28;20214;-75
2023/12/25 05:20:53;;;;;;;0.90;0.80;;;10.00;99.90;;;;;;4983057;28;21029;-75
2023/12/25 05:23:19;;;;;;;0.50;0.50;;;10.00;99.90;;;;;;5000641;28;20695;-75
2023/12/25 05:25:45;;;;;;;2.10;0.77;;;10.00;99.90;;;;;;4999582;28;20222;-74
2023/12/25 05:28:11;;;;;;;1.83;0.80;;;10.00;99.90;;;;;;5003034;28;20226;-75
2023/12/25 05:30:36;;;;;;;0.90;0.80;;;10.00;99.90;;;;;;5006532;28;20216;-75
2023/12/25 05:33:02;;;;;;;0.50;0.50;;;10.00;99.90;;;;;;5000158;28;20214;-75
2023/12/25 05:35:28;;;;;;;2.63;0.60;;;10.00;99.90;;;;;;5004318;28;20215;-74
2023/12/25 05:37:55;;;;;;;0.70;0.63;;;10.00;99.90;;;;;;4998671;28;20528;-74
2023/12/25 05:40:22;;;;;;;1.73;0.70;;;10.00;99.90;;;;;;4999444;28;20218;-74
2023/12/25 05:42:48;;;;;;;0.80;0.73;;;10.00;99.90;;;;;;4996870;28;20462;-75
2023/12/25 05:45:13;;;;;;;0.50;0.50;;;10.00;99.90;;;;;;4997849;28;20503;-75
2023/12/25 05:47:39;;;;;;;0.67;0.67;;;10.00;99.90;;;;;;5002815;28;20602;-75
2023/12/25 05:50:07;;;;;;;2.03;0.70;;;10.00;99.90;;;;;;5009297;28;20225;-75
2023/12/25 05:52:34;;;;;;;0.43;0.43;;;10.00;99.90;;;;;;5020871;28;20450;-74
2023/12/25 05:55:00;;;;;;;0.60;0.60;;;10.00;99.90;;;;;;4992733;28;20553;-73
2023/12/25 05:57:28;;;;;;;0.60;0.40;;;10.00;99.90;;;;;;5024290;28;20493;-75
2023/12/25 05:59:54;;;;;;;0.50;0.50;;;10.00;99.90;;;;;;5007580;28;20493;-75
2023/12/25 06:02:20;;;;;;;1.00;0.50;;;10.00;99.90;;;;;;5022073;28;20472;-74
2023/12/25 06:04:45;;;;;;;0.67;0.50;;;9.90;99.90;;;;;;5008249;28;20225;-75
2023/12/25 06:07:11;;;;;;;1.10;0.70;;;10.00;99.90;;;;;;5004794;28;20502;-75
2023/12/25 06:09:37;;;;;;;0.60;0.60;;;10.00;99.90;;;;;;5009838;28;20225;-75
2023/12/25 06:12:04;;;;;;;1.33;0.60;;;9.90;99.90;;;;;;4997970;28;20230;-75
2023/12/25 06:14:29;;;;;;;0.60;0.60;;;9.90;99.90;;;;;;5008632;28;20468;-75
2023/12/25 06:16:55;;;;;;;0.50;0.50;;;9.90;99.90;;;;;;5006557;28;20473;-75
2023/12/25 06:19:21;;;;;;;0.83;0.50;;;9.80;99.90;;;;;;5007060;28;20382;-75
2023/12/25 06:21:47;;;;;;;0.50;0.50;;;9.80;99.90;;;;;;5004968;28;20229;-75
2023/12/25 06:24:12;;;;;;;0.70;0.60;;;9.80;99.90;;;;;;4997627;28;20468;-75
2023/12/25 06:26:38;;;;;;;0.67;0.67;;;9.80;99.90;;;;;;4999726;28;20214;-75
2023/12/25 06:29:04;;;;;;;0.80;0.53;;;9.80;99.90;;;;;;5027587;28;20249;-74
2023/12/25 06:31:29;;;;;;;0.67;0.67;;;9.80;99.90;;;;;;4994604;28;20664;-75
2023/12/25 06:33:55;;;;;;;0.50;0.50;;;9.80;99.90;;;;;;5007599;28;20271;-75
2023/12/25 06:36:21;;;;;;;2.83;0.40;;;9.70;99.90;;;;;;4996560;28;20233;-75
2023/12/25 06:38:47;;;;;;;0.40;0.40;;;9.70;99.90;;;;;;5004896;28;20233;-76
2023/12/25 06:41:13;;;;;;;0.40;0.40;;;9.70;99.90;;;;;;5006535;28;20243;-75
2023/12/25 06:43:38;;;;;;;0.70;0.60;;;9.70;99.90;;;;;;4991721;28;20449;-75
2023/12/25 06:46:04;;;;;;;0.80;0.40;;;9.70;99.90;;;;;;4986466;28;20213;-76
2023/12/25 06:48:30;;;;;;;0.40;0.33;;;9.70;99.90;;;;;;4990890;28;20229;-75
2023/12/25 06:50:55;;;;;;;0.90;0.40;;;9.60;99.90;;;;;;4993087;28;20296;-75
2023/12/25 06:53:21;;;;;;;1.70;0.50;;;9.60;99.90;;;;;;4999239;28;20700;-73
2023/12/25 06:55:47;;;;;;;7.20;0.80;;;9.60;99.90;;;;;;5007818;28;20261;-74
2023/12/25 06:58:12;;;;;;;0.40;0.40;;;9.60;99.90;;;;;;5006127;28;20218;-74
2023/12/25 07:00:38;;;;;;;0.57;0.47;;;9.60;99.90;;;;;;5000954;28;20210;-75
2023/12/25 07:03:04;;;;;;;0.67;0.67;;;9.60;99.90;;;;;;5002954;28;20272;-74
2023/12/25 07:05:29;;;;;;;0.40;0.40;;;9.60;99.90;;;;;;5007270;28;20216;-74
2023/12/25 07:07:55;;;;;;;0.73;0.73;;;9.60;99.90;;;;;;4988596;28;20719;-75
2023/12/25 07:10:21;;;;;;;0.80;0.50;;;9.60;99.90;;;;;;4988209;28;20943;-75
2023/12/25 07:12:47;;;;;;;0.43;0.43;;;9.60;99.90;;;;;;4989481;28;20293;-75
2023/12/25 07:15:12;;;;;;;0.60;0.50;;;9.60;99.90;;;;;;5005829;28;20633;-75
2023/12/25 07:17:38;;;;;;;1.13;0.60;;;9.60;99.90;;;;;;5006653;28;20251;-75
2023/12/25 07:20:04;;;;;;;0.60;0.50;;;9.60;99.90;;;;;;5021830;28;20244;-75
2023/12/25 07:22:31;;;;;;;0.40;0.30;;;9.50;99.90;;;;;;5022504;28;20300;-75
2023/12/25 07:24:57;;;;;;;0.40;0.40;;;9.50;99.90;;;;;;5005555;28;20705;-75
2023/12/25 07:27:23;;;;;;;0.40;0.40;;;9.50;99.90;;;;;;5025108;28;20572;-75
2023/12/25 07:29:49;;;;;;;0.40;0.33;;;9.50;99.90;;;;;;5026816;28;20997;-76
2023/12/25 07:32:14;;;;;;;0.40;0.37;;;9.50;99.90;;;;;;4998340;28;20217;-75
2023/12/25 07:34:40;;;;;;;1.03;0.40;;;9.50;99.90;;;;;;4999109;28;20225;-75
2023/12/25 07:37:06;;;;;;;0.50;0.50;;;9.50;99.90;;;;;;5008586;28;20220;-75
2023/12/25 07:39:31;;;;;;;0.83;0.50;;;9.50;99.90;;;;;;4993975;28;20229;-76
2023/12/25 07:41:57;;;;;;;1.33;0.50;;;9.50;99.90;;;;;;4999371;28;20693;-75
2023/12/25 07:44:26;;;;;;;0.40;0.40;;;9.50;99.90;;;;;;5005674;28;20221;-75
2023/12/25 07:46:51;;;;;;;0.60;0.47;;;9.50;99.90;;;;;;5005919;28;20471;-75
2023/12/25 07:49:17;;;;;;;0.70;0.40;;;9.50;99.90;;;;;;4983717;28;20236;-74
2023/12/25 07:51:43;;;;;;;0.50;0.50;;;9.50;99.90;;;;;;4996013;28;20226;-75
2023/12/25 07:54:09;;;;;;;0.30;0.30;;;9.50;99.90;;;;;;5001382;28;20230;-75
2023/12/25 07:56:34;;;;;;;0.40;0.40;;;9.50;99.90;;;;;;4987253;28;20726;-75
2023/12/25 07:59:00;;;;;;;0.30;0.30;;;9.40;99.90;;;;;;4996439;28;20297;-75
2023/12/25 08:01:26;;;;;;;0.80;0.30;;;9.40;99.90;;;;;;4990510;28;20681;-75
2023/12/25 08:03:52;;;;;;;0.57;0.57;;;9.40;99.90;;;;;;4995846;28;20213;-75
2023/12/25 08:06:18;;;;;;;0.40;0.40;;;9.50;99.90;;;;;;4987132;28;20218;-75
2023/12/25 08:08:44;;;;;;;0.50;0.40;;;9.50;99.90;;;;;;5003286;28;20471;-75
2023/12/25 08:11:16;;;;;;;0.63;0.40;;;9.50;99.90;;;;;;4989995;28;20832;-75
2023/12/25 08:13:42;;;;;;;0.40;0.40;;;9.50;99.90;;;;;;5002497;28;20465;-75
2023/12/25 08:16:07;;;;;;;0.40;0.40;;;9.50;99.90;;;;;;4996102;28;20491;-75
2023/12/25 08:18:33;;;;;;;0.50;0.50;;;9.50;99.90;;;;;;4989730;28;20229;-75
2023/12/25 08:20:59;;;;;;;0.37;0.30;;;9.50;99.90;;;;;;4980213;28;20218;-75
2023/12/25 08:23:25;;;;;;;0.43;0.37;;;9.50;99.90;;;;;;4985191;28;20704;-75
2023/12/25 08:25:51;;;;;;;0.47;0.40;;;9.50;99.90;;;;;;4998886;28;20296;-75
2023/12/25 08:28:17;;;;;;;0.40;0.40;;;9.50;99.90;;;;;;4983259;28;20569;-75
2023/12/25 08:30:43;;;;;;;0.40;0.40;;;9.50;99.90;;;;;;5009183;28;20539;-75
2023/12/25 08:33:09;;;;;;;0.43;0.40;;;9.50;99.90;;;;;;5000554;28;20238;-75
2023/12/25 08:35:34;;;;;;;0.30;0.30;;;9.50;99.90;;;;;;5001582;28;20250;-75
2023/12/25 08:38:00;;;;;;;0.50;0.40;;;9.50;99.90;;;;;;4979361;28;20221;-76
2023/12/25 08:40:26;;;;;;;0.47;0.40;;;9.50;99.90;;;;;;4987937;28;20261;-75
2023/12/25 08:42:51;;;;;;;0.40;0.33;;;9.60;99.90;;;;;;4995071;28;20273;-75
2023/12/25 08:45:17;;;;;;;0.50;0.50;;;9.50;99.90;;;;;;4992982;28;20218;-75
2023/12/25 08:47:43;;;;;;;0.73;0.50;;;9.60;99.90;;;;;;4982184;28;20268;-75
2023/12/25 08:50:09;;;;;;;0.67;0.67;;;9.60;99.90;;;;;;5007143;28;20222;-75
2023/12/25 08:52:36;;;;;;;1.33;1.00;;;9.60;99.90;;;;;;4988199;28;20461;-74
2023/12/25 08:55:02;;;;;;;0.80;0.80;;;9.60;99.90;;;;;;4998921;28;20217;-75
2023/12/25 08:57:28;;;;;;;1.00;0.90;;;9.60;99.90;;;;;;4993389;28;20469;-75
2023/12/25 08:59:53;;;;;;;0.70;0.60;;;9.60;99.90;;;;;;4998308;28;20887;-74
2023/12/25 09:02:19;;;;;;;0.60;0.60;;;9.60;99.90;;;;;;4996638;28;20477;-75
2023/12/25 09:04:48;;;;;;;0.70;0.70;;;9.60;99.90;;;;;;5002225;28;20214;-75
2023/12/25 09:07:15;;;;;;;0.60;0.57;;;9.60;99.90;;;;;;4998123;28;20235;-75
2023/12/25 09:09:41;;;;;;;1.47;0.83;;;9.60;99.90;;;;;;4992795;28;20457;-75
2023/12/25 09:12:06;;;;;;;0.57;0.57;;;9.60;99.90;;;;;;5000224;28;21070;-75
2023/12/25 09:14:32;;;;;;;0.50;0.50;;;9.70;99.90;;;;;;4988326;28;20283;-75
2023/12/25 09:16:58;;;;;;;0.50;0.47;;;9.70;99.90;;;;;;5004125;28;20233;-76
2023/12/25 09:19:23;;;;;;;0.60;0.50;;;9.70;99.90;;;;;;4997620;28;20245;-75
2023/12/25 09:21:49;;;;;;;0.40;0.40;;;9.70;99.90;;;;;;4998793;28;20230;-75
2023/12/25 09:24:15;;;;;;;0.53;0.50;;;9.70;99.90;;;;;;4991828;28;20229;-75
2023/12/25 09:26:41;;;;;;;0.60;0.60;;;9.70;99.90;;;;;;4997687;28;20218;-75
2023/12/25 09:29:09;;;;;;;3.63;0.60;;;9.70;99.90;;;;;;5000027;28;20222;-75
2023/12/25 09:31:35;;;;;;;0.47;0.47;;;9.70;99.90;;;;;;4997332;28;20214;-75
2023/12/25 09:34:00;;;;;;;0.50;0.50;;;9.70;99.90;;;;;;5000433;28;20460;-75
2023/12/25 09:36:26;;;;;;;0.50;0.50;;;9.80;99.90;;;;;;4999751;28;20464;-75
2023/12/25 09:38:52;;;;;;;6.53;5.33;;;9.80;99.90;;;;;;4981222;28;20226;-76
2023/12/25 09:41:18;;;;;;;13.67;10.77;;;9.80;99.90;;;;;;4995702;28;20225;-75
2023/12/25 09:43:46;;;;;;;4.80;3.90;;;9.80;99.90;;;;;;4983740;28;20459;-75
2023/12/25 09:46:12;;;;;;;1.57;1.47;;;9.80;99.90;;;;;;4999390;28;20448;-75
2023/12/25 09:48:38;;;;;;;1.80;1.70;;;9.80;99.90;;;;;;5010961;28;20465;-75
2023/12/25 09:51:06;;;;;;;1.57;1.47;;;9.80;99.90;;;;;;5001245;28;20449;-75
2023/12/25 09:53:32;;;;;;;1.33;1.00;;;9.80;99.90;;;;;;5001743;28;20974;-75
2023/12/25 09:56:00;;;;;;;0.60;0.60;;;9.80;99.90;;;;;;5003998;28;20481;-75
2023/12/25 09:58:27;;;;;;;0.80;0.80;;;9.80;99.90;;;;;;5000244;28;20464;-75
2023/12/25 10:00:54;;;;;;;2.20;2.00;;;9.80;99.90;;;;;;5004885;28;20484;-75
2023/12/25 10:03:20;;;;;;;3.17;2.87;;;9.80;99.90;;;;;;4992839;28;20458;-76
2023/12/25 10:05:46;;;;;;;2.47;2.37;;;9.80;99.90;;;;;;4995550;28;20477;-75
2023/12/25 10:08:12;;;;;;;1.07;0.97;;;9.80;99.90;;;;;;4990389;28;20548;-76
2023/12/25 10:10:37;;;;;;;0.90;0.90;;;9.80;99.90;;;;;;4984262;28;20241;-75
2023/12/25 10:13:04;;;;;;;0.50;0.50;;;9.80;99.90;;;;;;4973722;28;20257;-76
2023/12/25 10:15:30;;;;;;;0.50;0.50;;;9.90;99.90;;;;;;5000741;28;20221;-75
2023/12/25 10:18:06;;;;;;;1.07;1.07;;;9.90;99.90;;;;;;4998902;28;20456;-76
2023/12/25 10:20:32;;;;;;;1.47;1.10;;;9.90;99.90;;;;;;5002485;28;20452;-75
2023/12/25 10:22:59;;;;;;;1.27;0.90;;;9.90;99.90;;;;;;4998106;28;20455;-75
2023/12/25 10:25:30;;;;;;;0.90;0.90;;;9.90;99.90;;;;;;4999266;28;20441;-75
2023/12/25 10:27:55;;;;;;;2.33;2.13;;;9.90;99.90;;;;;;4984347;28;20457;-75
2023/12/25 10:30:22;;;;;;;2.90;2.70;;;9.90;99.90;;;;;;4990581;28;20452;-74
2023/12/25 10:33:07;;;;;;;2.80;2.60;;;9.90;99.90;;;;;;4986442;28;20313;-75
2023/12/25 10:35:33;;;;;;;1.97;1.83;;;9.90;99.90;;;;;;4989300;28;20452;-75
2023/12/25 10:37:58;;;;;;;5.47;4.97;;;9.90;99.90;;;;;;4993640;28;20855;-75
2023/12/25 10:40:25;;;;;;;4.83;4.43;;;9.90;99.90;;;;;;5002037;28;20244;-75
2023/12/25 10:42:53;;;;;;;1.63;1.53;;;9.90;99.90;;;;;;5002834;28;20296;-76
2023/12/25 10:45:24;;;;;;;1.70;1.60;;;9.90;99.90;;;;;;5008179;28;20955;-75
2023/12/25 10:47:51;;;;;;;2.37;2.27;;;9.90;99.90;;;;;;4985510;28;20472;-75
2023/12/25 10:50:23;;;;;;;1.73;1.63;;;9.90;99.90;;;;;;4993664;28;20526;-75
2023/12/25 10:52:50;;;;;;;1.30;1.20;;;9.90;99.90;;;;;;4996270;28;20472;-75
2023/12/25 10:55:38;;;;;;;1.00;1.00;;;9.90;99.90;;;;;;4996988;28;20452;-75
2023/12/25 10:58:08;;;;;;;1.17;1.17;;;9.90;99.90;;;;;;4983386;28;20978;-75
2023/12/25 11:00:54;;;;;;;1.53;1.23;;;9.90;99.90;;;;;;4994623;28;20506;-75
2023/12/25 11:03:20;;;;;;;1.37;1.33;;;9.90;99.90;;;;;;5021292;28;20446;-75
2023/12/25 11:05:46;;;;;;;1.10;1.00;;;9.90;99.90;;;;;;5015591;28;20450;-75
2023/12/25 11:08:17;;;;;;;0.80;0.80;;;9.90;99.90;;;;;;4981756;28;20483;-75
2023/12/25 11:10:44;;;;;;;0.60;0.60;;;9.90;99.90;;;;;;5007838;28;20449;-75
2023/12/25 11:13:11;;;;;;;1.73;1.30;;;9.90;99.90;;;;;;4998026;28;20457;-76
2023/12/25 11:15:37;;;;;;;0.80;0.80;;;9.90;99.90;;;;;;5002861;28;20457;-75
2023/12/25 11:18:05;;;;;;;0.90;0.90;;;9.90;99.90;;;;;;4997291;28;20464;-76
2023/12/25 11:20:31;;;;;;;0.53;0.53;;;9.90;99.90;;;;;;4989004;28;20210;-75
2023/12/25 11:22:57;;;;;;;1.30;1.20;;;9.90;99.90;;;;;;4995003;28;20455;-75
2023/12/25 11:25:25;;;;;;;1.50;1.40;;;9.90;99.90;;;;;;4979420;28;20460;-75
2023/12/25 11:27:53;;;;;;;0.63;0.63;;;10.00;99.90;;;;;;5000043;28;20463;-75
2023/12/25 11:30:22;;;;;;;0.50;0.50;;;10.00;99.90;;;;;;5021102;28;20449;-74
2023/12/25 11:32:49;;;;;;;0.80;0.80;;;10.00;99.90;;;;;;5009543;28;20452;-75
2023/12/25 11:35:37;;;;;;;2.17;1.93;;;10.00;99.90;;;;;;4997750;28;20448;-75
2023/12/25 11:38:20;;;;;;;4.73;2.90;;;10.00;99.90;;;;;;4990020;28;20470;-75
2023/12/25 11:40:48;;;;;;;23.70;12.37;;;10.00;99.90;;;;;;4981285;28;20460;-75
2023/12/25 11:43:16;;;;;;;7.93;5.50;;;10.00;99.90;;;;;;4990774;28;20451;-75
2023/12/25 11:45:51;;;;;;;18.90;11.70;;;10.00;99.90;;;;;;4996148;28;20498;-75
2023/12/25 11:48:17;;;;;;;13.00;8.50;;;10.00;99.90;;;;;;4983020;28;20453;-74
2023/12/25 11:50:44;;;;;;;11.20;6.57;;;10.00;99.90;;;;;;4997568;28;20460;-75
2023/12/25 11:53:10;;;;;;;4.33;4.03;;;10.10;99.90;;;;;;4981528;28;20326;-75
2023/12/25 11:55:36;;;;;;;1.70;1.60;;;10.10;99.90;;;;;;5001392;28;20527;-75
2023/12/25 11:58:02;;;;;;;1.07;1.07;;;10.10;99.90;;;;;;5005733;28;20700;-75
2023/12/25 12:00:31;;;;;;;0.70;0.70;;;10.10;99.90;;;;;;4998755;28;20452;-75
2023/12/25 12:02:57;;;;;;;0.63;0.50;;;10.10;99.90;;;;;;4989167;28;20453;-75
2023/12/25 12:05:23;;;;;;;0.50;0.40;;;10.10;99.90;;;;;;4992327;28;20456;-75
2023/12/25 12:07:49;;;;;;;0.57;0.57;;;10.10;99.90;;;;;;4984610;28;20469;-75
2023/12/25 12:10:15;;;;;;;0.50;0.50;;;10.20;99.90;;;;;;4992466;28;20229;-76
2023/12/25 12:12:41;;;;;;;0.50;0.50;;;10.20;99.90;;;;;;4999673;28;20205;-75
2023/12/25 12:15:07;;;;;;;0.50;0.50;;;10.20;99.90;;;;;;4999452;28;20206;-76
2023/12/25 12:17:36;;;;;;;0.67;0.67;;;10.20;99.90;;;;;;4992688;28;20475;-75
2023/12/25 12:20:04;;;;;;;0.83;0.80;;;10.20;99.90;;;;;;5005765;28;20514;-76
2023/12/25 12:22:31;;;;;;;1.27;0.63;;;10.20;99.90;;;;;;5002473;28;20461;-76
2023/12/25 12:25:13;;;;;;;0.60;0.50;;;10.20;99.90;;;;;;4984689;28;21058;-76
2023/12/25 12:27:39;;;;;;;1.37;0.40;;;10.20;99.90;;;;;;4985929;28;20456;-75
2023/12/25 12:30:07;;;;;;;0.67;0.67;;;10.20;99.90;;;;;;5000677;28;20966;-75
2023/12/25 12:32:34;;;;;;;0.50;0.50;;;10.20;99.90;;;;;;4997829;28;20301;-75
2023/12/25 12:35:00;;;;;;;0.60;0.57;;;10.20;99.90;;;;;;4993736;28;20475;-75
2023/12/25 12:37:25;;;;;;;0.50;0.50;;;10.20;99.90;;;;;;4991255;28;21002;-75
2023/12/25 12:39:51;;;;;;;0.60;0.60;;;10.20;99.90;;;;;;4996453;28;20225;-75
2023/12/25 12:42:17;;;;;;;0.47;0.47;;;10.20;99.90;;;;;;5001757;28;20222;-75
2023/12/25 12:44:49;;;;;;;0.97;0.70;;;10.20;99.90;;;;;;5003584;28;20233;-75
2023/12/25 12:47:15;;;;;;;0.40;0.33;;;10.20;99.90;;;;;;4991731;28;20234;-75